Fort Valley, GA

6:15 PM EDT on March 23, 2017 (GMT -0400)
Jacob's Landing | | Change Station

Elev 515 ft 32.65 °N, 83.79 °W | Updated 12 seconds ago

Overcast
Overcast
65.7 °F
Feels Like 65.7 °F
N
0.4
Wind Variable Wind from ESE
Gusts 2.5 mph

Today
High -- | Low -- °F
--% Chance of Precip.
Yesterday
High -- | Low -- °F
Precip. -- in
Pressure 30.37 in
Visibility 10.0 miles
Clouds Scattered Clouds 4500 ft
Dew Point 47 °F
Humidity 50%
Rainfall 0.00 in
Snow Depth Not available.
7:35 AM 7:49 PM
Waning Crescent, 20% visible
METAR KMCN 232153Z 09012KT 10SM SCT045 19/08 A3038 RMK AO2 SLP284 T01890083
Pressure 30.37 in
Visibility 10.0 miles
Clouds Scattered Clouds 4500 ft
Dew Point 47 °F
Humidity 50%
Rainfall 0.00 in
Snow Depth Not available.
7:35 AM 7:49 PM
Waning Crescent, 20% visible
METAR KMCN 232153Z 09012KT 10SM SCT045 19/08 A3038 RMK AO2 SLP284 T01890083

Get Severe Weather Alerts

Thanks for signing up!

Be on the lookout for a verification email in your inbox.

You'll start receiving the daily forecast at 8 AM.

×

10-Day Weather Forecast

Almanac

Astronomy

Mar. 23, 2017 Rise Set
Actual Time
Civil Twilight
Nautical Twilight
Astronomical Twilight
Moon
Length of Visible Light
Length of Day
Tomorrow will be .
, % of the Moon is Illuminated

Today's Extremes

State Highs State Lows

Community

WunderPhotos

Upload Photos

1,962,540 photos uploaded!

WunderBlog® & News

Nearby

Air Quality

  Air Quality AQ Index Pollutant
Not available.

Snow Depth

Station Depth Elevation

Earthquake Activity

City Distance Mag. Time & Date
Minimum magnitude displayed is 2.5.

Earthquake Activity

City Distance Mag. Time & Date
Minimum magnitude displayed is 2.5.

Coastal Water Temperatures

Place Temperature

Stations

Nearby Weather Stations

Station Location Temp. Windchill Dew Point Humidity Wind Precip. Elev Updated Type
                   

Watches & Warnings

There are currently no watches in effect.